< < Back
Terminal Aerodrome Forecast


Current Version              Previous Versions:   1  2  3  4  5  6  7  8  9  

Terminal Aerodrome Forecast

572
FTUS42 KMLB 242000 AAA
TAFMCO
TAF AMD
KMCO 242050Z 2421/2518 19012G18KT P6SM VCSH BKN035 BKN250
     FM242300 22011G15KT P6SM VCTS SCT020CB BKN040 OVC080
      TEMPO 2500/2502 VRB20G30KT 3SM TSRA BKN020CB OVC040
     FM250200 24011KT P6SM VCSH BKN030 OVC060
     FM250800 30008KT P6SM BKN060=

Latest METAR

062
SAUS70 KWBC 250500 RRJ
MTRMCO
METAR KMCO 250453Z 28006KT 10SM FEW041 SCT060 18/16 A2997 RMK AO2 RAE04
SLP148 P0000 T01830161 402940183 $


USA.gov is the U.S. government's official web portal to all federal, state and local government web resources and services.